createdAt,value
2023-03-15T00:00:00.987Z,12.25
2023-03-15T00:02:29.267Z,7.60
2023-03-15T00:04:57.326Z,8.85
2023-03-15T00:07:25.943Z,10.88
2023-03-15T00:09:54.155Z,14.35
2023-03-15T00:12:23.936Z,7.78
2023-03-15T00:14:53.698Z,8.35
2023-03-15T00:17:23.021Z,8.00
2023-03-15T00:19:51.065Z,6.90
2023-03-15T00:22:19.393Z,6.35
2023-03-15T00:24:47.636Z,5.75
2023-03-15T00:27:15.867Z,10.10
2023-03-15T00:29:44.106Z,9.27
2023-03-15T00:32:13.839Z,8.20
2023-03-15T00:34:42.011Z,7.38
2023-03-15T00:37:10.306Z,7.38
2023-03-15T00:39:39.665Z,9.80
2023-03-15T00:42:09.707Z,5.70
2023-03-15T00:44:37.687Z,4.75
2023-03-15T00:47:05.897Z,5.63
2023-03-15T00:49:35.294Z,7.57
2023-03-15T00:52:03.641Z,4.55
2023-03-15T00:54:33.449Z,4.45
2023-03-15T00:57:02.377Z,6.32
2023-03-15T00:59:34.858Z,10.70
2023-03-15T01:02:03.443Z,3.80
2023-03-15T01:04:31.541Z,4.95
2023-03-15T01:07:01.245Z,6.03
2023-03-15T01:09:30.554Z,6.78
2023-03-15T01:11:58.739Z,4.35
2023-03-15T01:14:26.990Z,4.60
2023-03-15T01:16:55.146Z,5.13
2023-03-15T01:19:23.248Z,5.55
2023-03-15T01:21:51.462Z,3.03
2023-03-15T01:24:21.228Z,5.45
2023-03-15T01:26:51.857Z,3.38
2023-03-15T01:29:20.623Z,3.75
2023-03-15T01:31:49.179Z,4.57
2023-03-15T01:34:18.255Z,12.00
2023-03-15T01:36:46.715Z,3.97
2023-03-15T01:39:15.334Z,5.40
2023-03-15T01:41:47.258Z,2.40
2023-03-15T01:44:16.210Z,3.78
2023-03-15T01:46:46.013Z,1.85
2023-03-15T01:49:23.011Z,4.47
2023-03-15T01:51:58.884Z,3.22
2023-03-15T01:54:35.215Z,2.33
2023-03-15T01:57:10.270Z,3.15
2023-03-15T01:59:44.368Z,5.05
2023-03-15T02:02:14.945Z,6.22
2023-03-15T02:04:48.611Z,2.42
2023-03-15T02:07:19.362Z,2.25
2023-03-15T02:09:54.674Z,2.55
2023-03-15T02:12:24.754Z,3.00
2023-03-15T02:14:54.235Z,1.65
2023-03-15T02:17:31.597Z,3.25
2023-03-15T02:20:07.081Z,6.28
2023-03-15T02:22:45.808Z,3.75
2023-03-15T02:25:22.647Z,3.03
2023-03-15T02:27:52.970Z,3.45
2023-03-15T02:30:22.644Z,9.68
2023-03-15T02:32:51.815Z,3.92
2023-03-15T02:35:28.411Z,6.20
2023-03-15T02:37:56.746Z,3.00
2023-03-15T02:40:27.977Z,4.07
2023-03-15T02:43:00.800Z,2.30
2023-03-15T02:45:32.528Z,5.00
2023-03-15T02:48:01.714Z,6.47
2023-03-15T02:50:30.122Z,2.80
2023-03-15T02:52:58.415Z,2.85
2023-03-15T02:55:26.914Z,3.22
2023-03-15T02:57:55.173Z,3.70
2023-03-15T03:00:25.313Z,1.95
2023-03-15T03:02:53.820Z,4.85
2023-03-15T03:05:22.544Z,6.10
2023-03-15T03:07:51.185Z,5.00
2023-03-15T03:10:20.913Z,4.40
2023-03-15T03:12:57.896Z,4.45
2023-03-15T03:15:33.988Z,4.55
2023-03-15T03:18:02.317Z,4.45
2023-03-15T03:20:30.739Z,12.95
2023-03-15T03:22:58.974Z,3.53
2023-03-15T03:25:28.132Z,6.70
2023-03-15T03:27:57.479Z,6.40
2023-03-15T03:30:28.590Z,5.45
2023-03-15T03:32:58.446Z,6.97
2023-03-15T03:35:27.035Z,6.70
2023-03-15T03:37:56.533Z,7.47
2023-03-15T03:40:30.814Z,4.63
2023-03-15T03:42:59.447Z,5.97
2023-03-15T03:45:27.792Z,3.92
2023-03-15T03:48:00.710Z,5.45
2023-03-15T03:50:29.914Z,5.22
2023-03-15T03:52:58.165Z,4.72
2023-03-15T03:55:34.100Z,11.73
2023-03-15T03:58:02.677Z,4.60
2023-03-15T04:00:55.022Z,6.70
2023-03-15T04:03:28.938Z,9.00
2023-03-15T04:06:06.538Z,4.47
2023-03-15T04:08:39.619Z,6.53
2023-03-15T04:11:09.011Z,9.13
2023-03-15T04:13:39.948Z,7.93
2023-03-15T04:16:09.490Z,9.93
2023-03-15T04:18:56.480Z,8.73
2023-03-15T04:21:25.127Z,8.73
2023-03-15T04:23:58.314Z,7.90
2023-03-15T04:26:36.368Z,10.73
2023-03-15T04:29:31.071Z,8.25
2023-03-15T04:32:19.020Z,6.70
2023-03-15T04:35:11.252Z,6.18
2023-03-15T04:37:52.083Z,7.75
2023-03-15T04:40:55.979Z,8.13
2023-03-15T04:43:34.812Z,5.82
2023-03-15T04:46:16.736Z,4.28
2023-03-15T04:49:06.142Z,6.60
2023-03-15T04:52:14.926Z,5.75
2023-03-15T04:55:01.898Z,5.72
2023-03-15T04:57:50.362Z,6.90
2023-03-15T05:00:40.939Z,5.07
2023-03-15T05:03:32.412Z,12.70
2023-03-15T05:06:19.838Z,9.25
2023-03-15T05:09:05.550Z,8.50
2023-03-15T05:11:51.873Z,6.03
2023-03-15T05:14:39.405Z,10.18
2023-03-15T05:17:35.150Z,6.85
2023-03-15T05:20:29.748Z,7.45
2023-03-15T05:23:11.195Z,6.88
2023-03-15T05:26:04.822Z,4.53
2023-03-15T05:28:52.579Z,7.07
2023-03-15T05:31:47.076Z,6.95
2023-03-15T05:34:32.502Z,9.20
2023-03-15T05:37:09.370Z,5.97
2023-03-15T05:39:50.409Z,5.78
2023-03-15T05:42:59.114Z,4.53
2023-03-15T05:45:37.653Z,12.23
2023-03-15T05:48:41.442Z,6.18
2023-03-15T05:51:33.905Z,10.05
2023-03-15T05:54:08.457Z,11.15
2023-03-15T05:56:55.789Z,5.90
2023-03-15T05:59:36.832Z,8.55
2023-03-15T06:02:16.844Z,8.48
2023-03-15T06:04:54.142Z,8.05
2023-03-15T06:07:26.158Z,6.70
2023-03-15T06:09:54.637Z,8.52
2023-03-15T06:12:23.175Z,8.18
2023-03-15T06:14:52.697Z,5.45
2023-03-15T06:17:21.501Z,8.70
2023-03-15T06:19:50.007Z,7.95
2023-03-15T06:22:20.688Z,6.90
2023-03-15T06:24:57.815Z,5.63
2023-03-15T06:27:26.171Z,10.95
2023-03-15T06:29:58.517Z,7.70
2023-03-15T06:32:26.681Z,6.50
2023-03-15T06:34:55.112Z,5.43
2023-03-15T06:37:34.715Z,7.22
2023-03-15T06:40:06.024Z,6.38
2023-03-15T06:42:34.753Z,7.38
2023-03-15T06:45:05.459Z,7.07
2023-03-15T06:47:33.718Z,11.77
2023-03-15T06:50:02.236Z,5.50
2023-03-15T06:52:30.519Z,6.80
2023-03-15T06:54:58.639Z,4.22
2023-03-15T06:57:36.588Z,6.18
2023-03-15T07:00:11.428Z,9.10
2023-03-15T07:02:39.791Z,4.13
2023-03-15T07:05:09.090Z,6.88
2023-03-15T07:07:37.288Z,6.75
2023-03-15T07:10:05.917Z,8.98
2023-03-15T07:12:34.042Z,7.45
2023-03-15T07:15:02.359Z,5.55
2023-03-15T07:17:31.995Z,6.47
2023-03-15T07:20:00.076Z,5.10
2023-03-15T07:22:28.180Z,8.15
2023-03-15T07:24:56.210Z,5.82
2023-03-15T07:27:24.443Z,10.70
2023-03-15T07:29:52.650Z,5.28
2023-03-15T07:32:20.873Z,15.90
2023-03-15T07:34:50.649Z,5.40
2023-03-15T07:37:18.703Z,7.63
2023-03-15T07:39:47.030Z,6.35
2023-03-15T07:42:15.544Z,4.82
2023-03-15T07:44:46.431Z,3.97
2023-03-15T07:47:14.700Z,8.50
2023-03-15T07:49:42.826Z,4.45
2023-03-15T07:52:12.928Z,7.05
2023-03-15T07:54:40.998Z,5.55
2023-03-15T07:57:09.369Z,7.88
2023-03-15T07:59:37.559Z,5.82
2023-03-15T08:02:06.387Z,4.55
2023-03-15T08:04:36.550Z,3.00
2023-03-15T08:07:05.078Z,4.65
2023-03-15T08:09:34.672Z,2.55
2023-03-15T08:12:03.433Z,9.98
2023-03-15T08:14:31.606Z,3.35
2023-03-15T08:16:59.743Z,8.40
2023-03-15T08:19:27.990Z,11.55
2023-03-15T08:21:56.160Z,8.75
2023-03-15T08:24:24.463Z,2.75
2023-03-15T08:26:54.106Z,10.20
2023-03-15T08:29:22.371Z,4.90
2023-03-15T08:31:51.253Z,4.15
2023-03-15T08:34:19.536Z,4.43
2023-03-15T08:36:48.148Z,4.30
2023-03-15T08:39:16.714Z,3.38
2023-03-15T08:41:45.889Z,11.82
2023-03-15T08:44:15.392Z,3.15
2023-03-15T08:46:43.657Z,3.83
2023-03-15T08:49:12.159Z,8.27
2023-03-15T08:51:41.209Z,7.60
2023-03-15T08:54:09.574Z,3.58
2023-03-15T08:56:37.960Z,6.10
2023-03-15T08:59:06.007Z,3.15
2023-03-15T09:01:36.036Z,5.78
2023-03-15T09:04:04.592Z,3.83
2023-03-15T09:06:32.886Z,6.70
2023-03-15T09:09:01.029Z,5.82
2023-03-15T09:11:29.277Z,1.92
2023-03-15T09:13:57.393Z,6.47
2023-03-15T09:16:25.993Z,6.82
2023-03-15T09:18:55.474Z,4.25
2023-03-15T09:21:24.839Z,5.30
2023-03-15T09:23:52.811Z,7.82
2023-03-15T09:26:21.058Z,7.22
2023-03-15T09:28:49.138Z,2.25
2023-03-15T09:31:17.449Z,8.55
2023-03-15T09:33:46.870Z,3.72
2023-03-15T09:36:16.602Z,6.05
2023-03-15T09:38:45.027Z,2.35
2023-03-15T09:41:20.652Z,4.00
2023-03-15T09:44:02.303Z,4.88
2023-03-15T09:46:34.027Z,6.22
2023-03-15T09:49:10.449Z,2.78
2023-03-15T09:51:48.083Z,4.30
2023-03-15T09:54:19.595Z,2.45
2023-03-15T09:56:54.792Z,4.80
2023-03-15T09:59:27.684Z,2.25
2023-03-15T10:01:57.738Z,11.43
2023-03-15T10:04:30.883Z,4.20
2023-03-15T10:07:03.821Z,4.95
2023-03-15T10:09:34.548Z,2.10
2023-03-15T10:12:07.355Z,2.85
2023-03-15T10:14:53.838Z,2.63
2023-03-15T10:17:30.257Z,1.98
2023-03-15T10:20:06.359Z,1.45
2023-03-15T10:22:41.646Z,5.95
2023-03-15T10:25:16.616Z,3.85
2023-03-15T10:27:49.009Z,2.80
2023-03-15T10:30:22.242Z,2.17
2023-03-15T10:33:06.714Z,1.98
2023-03-15T10:35:35.184Z,3.22
2023-03-15T10:38:04.764Z,2.45
2023-03-15T10:40:44.644Z,1.95
2023-03-15T10:43:20.615Z,2.78
2023-03-15T10:46:01.048Z,2.08
2023-03-15T10:48:31.222Z,1.20
2023-03-15T10:51:04.353Z,2.38
2023-03-15T10:53:34.308Z,3.25
2023-03-15T10:56:05.380Z,1.77
2023-03-15T10:58:42.596Z,3.22
2023-03-15T11:01:23.467Z,2.20
2023-03-15T11:04:03.369Z,1.73
2023-03-15T11:06:42.265Z,1.25
2023-03-15T11:09:14.678Z,2.08
2023-03-15T11:12:03.172Z,2.88
2023-03-15T11:14:38.311Z,4.15
2023-03-15T11:17:08.755Z,1.42
2023-03-15T11:19:42.924Z,2.50
2023-03-15T11:22:14.926Z,1.77
2023-03-15T11:24:44.797Z,2.45
2023-03-15T11:27:15.642Z,1.77
2023-03-15T11:29:48.747Z,1.48
2023-03-15T11:32:20.743Z,5.82
2023-03-15T11:34:58.152Z,1.73
2023-03-15T11:37:29.773Z,1.80
2023-03-15T11:40:12.602Z,2.35
2023-03-15T11:42:49.351Z,3.28
2023-03-15T11:45:22.347Z,2.05
2023-03-15T11:47:54.303Z,1.55
2023-03-15T11:50:22.600Z,1.58
2023-03-15T11:52:53.163Z,1.42
2023-03-15T11:55:27.190Z,2.65
2023-03-15T11:57:57.846Z,1.48
2023-03-15T12:00:51.321Z,2.55
2023-03-15T12:03:41.728Z,3.15
2023-03-15T12:06:36.909Z,2.53
2023-03-15T12:09:48.971Z,1.40
2023-03-15T12:12:38.922Z,1.73
2023-03-15T12:15:36.252Z,3.47
2023-03-15T12:18:07.294Z,5.05
2023-03-15T12:20:37.785Z,2.08
2023-03-15T12:23:22.536Z,1.45
2023-03-15T12:25:56.504Z,2.20
2023-03-15T12:28:28.976Z,5.13
2023-03-15T12:31:01.745Z,4.72
2023-03-15T12:33:34.124Z,2.50
2023-03-15T12:36:06.024Z,1.58
2023-03-15T12:38:38.670Z,1.00
2023-03-15T12:41:09.627Z,2.28
2023-03-15T12:43:41.316Z,2.38
2023-03-15T12:46:29.527Z,3.28
2023-03-15T12:49:13.793Z,3.63
2023-03-15T12:51:57.363Z,2.00
2023-03-15T12:54:31.850Z,1.67
2023-03-15T12:57:03.948Z,2.35
2023-03-15T12:59:41.332Z,3.47
2023-03-15T13:02:35.897Z,2.55
2023-03-15T13:05:24.866Z,1.58
2023-03-15T13:07:58.769Z,2.85
2023-03-15T13:10:52.959Z,2.50
2023-03-15T13:13:54.951Z,3.67
2023-03-15T13:16:32.603Z,2.75
2023-03-15T13:19:07.501Z,3.28
2023-03-15T13:21:43.111Z,2.15
2023-03-15T13:24:21.708Z,1.95
2023-03-15T13:26:58.486Z,2.58
2023-03-15T13:29:30.577Z,4.43
2023-03-15T13:32:03.997Z,3.05
2023-03-15T13:34:34.293Z,3.75
2023-03-15T13:37:04.217Z,6.13
2023-03-15T13:39:34.692Z,3.25
2023-03-15T13:42:06.674Z,5.55
2023-03-15T13:44:35.068Z,3.97
2023-03-15T13:47:03.778Z,5.38
2023-03-15T13:49:32.966Z,3.85
2023-03-15T13:52:12.269Z,4.63
2023-03-15T13:54:42.062Z,7.93
2023-03-15T13:57:15.143Z,3.97
2023-03-15T13:59:52.608Z,4.57
2023-03-15T14:02:25.419Z,7.20
2023-03-15T14:04:58.271Z,4.30
2023-03-15T14:07:30.778Z,6.88
2023-03-15T14:10:21.195Z,7.80
2023-03-15T14:12:50.054Z,4.88
2023-03-15T14:15:21.321Z,3.55
2023-03-15T14:17:55.523Z,3.95
2023-03-15T14:20:29.977Z,3.78
2023-03-15T14:23:05.229Z,2.70
2023-03-15T14:25:37.601Z,3.55
2023-03-15T14:28:07.119Z,6.07
2023-03-15T14:30:38.103Z,3.72
2023-03-15T14:33:09.031Z,2.53
2023-03-15T14:35:45.977Z,2.45
2023-03-15T14:38:22.373Z,3.10
2023-03-15T14:40:51.749Z,2.60
2023-03-15T14:43:20.818Z,4.30
2023-03-15T14:45:50.375Z,3.60
2023-03-15T14:48:26.246Z,3.45
2023-03-15T14:50:54.765Z,4.95
2023-03-15T14:53:28.057Z,2.50
2023-03-15T14:55:56.139Z,2.47
2023-03-15T14:58:24.383Z,2.65
2023-03-15T15:00:54.916Z,2.45
2023-03-15T15:03:31.401Z,4.53
2023-03-15T15:06:00.596Z,3.40
2023-03-15T15:08:32.467Z,2.75
2023-03-15T15:11:01.414Z,2.30
2023-03-15T15:13:31.468Z,4.03
2023-03-15T15:16:00.017Z,3.08
2023-03-15T15:18:29.937Z,2.38
2023-03-15T15:21:01.168Z,4.00
2023-03-15T15:23:33.019Z,2.78
2023-03-15T15:26:04.242Z,4.03
2023-03-15T15:28:36.839Z,3.42
2023-03-15T15:31:07.534Z,3.88
2023-03-15T15:33:36.318Z,3.80
2023-03-15T15:36:05.009Z,4.40
2023-03-15T15:38:39.036Z,3.90
2023-03-15T15:41:12.863Z,3.40
2023-03-15T15:43:41.147Z,7.78
2023-03-15T15:46:12.466Z,4.63
2023-03-15T15:48:41.564Z,3.35
2023-03-15T15:51:21.309Z,3.90
2023-03-15T15:53:51.350Z,5.72
2023-03-15T15:56:19.494Z,3.95
2023-03-15T15:58:48.119Z,4.00
2023-03-15T16:01:17.306Z,6.20
2023-03-15T16:03:45.338Z,6.13
2023-03-15T16:06:18.793Z,4.93
2023-03-15T16:08:47.820Z,5.65
2023-03-15T16:11:19.603Z,6.55
2023-03-15T16:13:49.151Z,4.20
2023-03-15T16:16:19.257Z,4.55
2023-03-15T16:18:47.818Z,7.03
2023-03-15T16:21:17.884Z,4.03
2023-03-15T16:23:56.935Z,4.22
2023-03-15T16:26:27.034Z,4.03
2023-03-15T16:28:55.572Z,4.07
2023-03-15T16:31:23.990Z,3.47
2023-03-15T16:33:52.372Z,4.63
2023-03-15T16:36:22.654Z,4.90
2023-03-15T16:38:50.930Z,5.53
2023-03-15T16:41:19.429Z,6.03
2023-03-15T16:43:49.529Z,4.20
2023-03-15T16:46:19.130Z,6.90
2023-03-15T16:48:47.428Z,3.47
2023-03-15T16:51:17.164Z,4.30
2023-03-15T16:53:45.723Z,8.45
2023-03-15T16:56:15.460Z,6.05
2023-03-15T16:58:45.528Z,6.72
2023-03-15T17:01:15.063Z,6.13
2023-03-15T17:03:43.367Z,6.78
2023-03-15T17:06:20.259Z,9.05
2023-03-15T17:08:48.913Z,6.53
2023-03-15T17:11:18.121Z,9.93
2023-03-15T17:13:46.435Z,11.98
2023-03-15T17:16:16.978Z,7.30
2023-03-15T17:18:47.826Z,9.30
2023-03-15T17:21:19.105Z,9.93
2023-03-15T17:23:48.361Z,10.68
2023-03-15T17:26:20.305Z,9.93
2023-03-15T17:28:49.888Z,11.00
2023-03-15T17:31:24.895Z,8.20
2023-03-15T17:33:53.906Z,8.60
2023-03-15T17:36:24.567Z,7.70
2023-03-15T17:38:54.441Z,6.55
2023-03-15T17:41:25.559Z,8.23
2023-03-15T17:43:54.058Z,8.23
2023-03-15T17:46:29.831Z,10.35
2023-03-15T17:48:59.138Z,9.65
2023-03-15T17:51:30.357Z,7.65
2023-03-15T17:53:59.611Z,7.85
2023-03-15T17:56:29.257Z,9.45
2023-03-15T17:58:57.448Z,7.35
2023-03-15T18:01:28.714Z,8.38
2023-03-15T18:03:57.273Z,7.80
2023-03-15T18:06:25.411Z,8.00
2023-03-15T18:08:53.985Z,10.77
2023-03-15T18:11:25.818Z,9.38
2023-03-15T18:13:54.351Z,8.63
2023-03-15T18:16:22.720Z,9.70
2023-03-15T18:18:52.366Z,10.05
2023-03-15T18:21:23.182Z,9.65
2023-03-15T18:23:52.236Z,13.30
2023-03-15T18:26:21.462Z,10.43
2023-03-15T18:28:50.311Z,10.60
2023-03-15T18:31:23.505Z,10.20
2023-03-15T18:33:57.589Z,9.35
2023-03-15T18:36:27.386Z,11.82
2023-03-15T18:38:59.321Z,10.13
2023-03-15T18:41:30.256Z,11.02
2023-03-15T18:44:01.465Z,8.75
2023-03-15T18:46:33.902Z,7.47
2023-03-15T18:49:07.868Z,9.63
2023-03-15T18:51:37.193Z,9.38
2023-03-15T18:54:09.135Z,12.88
2023-03-15T18:56:44.204Z,15.65
2023-03-15T18:59:18.443Z,19.67
2023-03-15T19:01:53.502Z,19.05
2023-03-15T19:04:31.220Z,17.55
2023-03-15T19:07:05.580Z,15.88
2023-03-15T19:09:41.756Z,14.48
2023-03-15T19:12:17.026Z,10.95
2023-03-15T19:14:54.237Z,8.70
2023-03-15T19:17:28.497Z,15.27
2023-03-15T19:20:02.713Z,9.80
2023-03-15T19:22:35.330Z,7.60
2023-03-15T19:25:09.728Z,8.00
2023-03-15T19:27:40.906Z,7.97
2023-03-15T19:30:19.386Z,8.07
2023-03-15T19:32:52.659Z,8.38
2023-03-15T19:35:32.499Z,8.05
2023-03-15T19:38:08.235Z,9.63
2023-03-15T19:40:43.648Z,12.25
2023-03-15T19:43:16.801Z,12.05
2023-03-15T19:45:48.481Z,7.90
2023-03-15T19:48:21.234Z,7.45
2023-03-15T19:50:57.392Z,6.70
2023-03-15T19:53:29.480Z,10.65
2023-03-15T19:56:02.106Z,9.30
2023-03-15T19:58:34.530Z,8.60
2023-03-15T20:01:09.143Z,9.25
2023-03-15T20:03:47.140Z,9.15
2023-03-15T20:06:23.963Z,15.20
2023-03-15T20:08:58.084Z,12.70
2023-03-15T20:11:39.300Z,13.80
2023-03-15T20:14:15.467Z,11.20
2023-03-15T20:16:49.757Z,11.02
2023-03-15T20:19:33.945Z,8.95
2023-03-15T20:22:15.456Z,10.50
2023-03-15T20:24:46.133Z,8.85
2023-03-15T20:27:14.933Z,8.88
2023-03-15T20:29:44.578Z,7.30
2023-03-15T20:32:28.507Z,9.15
2023-03-15T20:35:03.731Z,12.23
2023-03-15T20:37:46.079Z,8.80
2023-03-15T20:40:28.928Z,10.95
2023-03-15T20:43:03.498Z,10.30
2023-03-15T20:45:36.187Z,7.82
2023-03-15T20:48:09.773Z,9.48
2023-03-15T20:50:43.988Z,12.98
2023-03-15T20:53:16.284Z,11.18
2023-03-15T20:55:47.788Z,10.77
2023-03-15T20:58:19.782Z,9.13
2023-03-15T21:00:51.132Z,8.48
2023-03-15T21:03:24.727Z,9.32
2023-03-15T21:06:00.106Z,11.13
2023-03-15T21:08:36.137Z,9.02
2023-03-15T21:11:08.316Z,10.52
2023-03-15T21:13:42.091Z,14.57
2023-03-15T21:16:18.363Z,9.68
2023-03-15T21:18:53.752Z,9.07
2023-03-15T21:21:25.931Z,12.70
2023-03-15T21:24:03.505Z,9.50
2023-03-15T21:26:37.761Z,11.07
2023-03-15T21:29:12.442Z,9.82
2023-03-15T21:31:45.983Z,8.07
2023-03-15T21:34:16.182Z,10.50
2023-03-15T21:36:47.095Z,11.50
2023-03-15T21:39:20.780Z,12.98
2023-03-15T21:41:50.148Z,11.25
2023-03-15T21:44:18.449Z,11.77
2023-03-15T21:46:46.900Z,9.70
2023-03-15T21:49:15.040Z,10.20
2023-03-15T21:51:46.084Z,11.57
2023-03-15T21:54:14.595Z,10.98
2023-03-15T21:56:44.110Z,10.02
2023-03-15T21:59:12.392Z,12.43
2023-03-15T22:01:40.652Z,10.68
2023-03-15T22:04:08.807Z,10.38
2023-03-15T22:06:36.899Z,9.50
2023-03-15T22:09:05.083Z,11.38
2023-03-15T22:11:33.178Z,8.85
2023-03-15T22:14:02.681Z,12.20
2023-03-15T22:16:33.358Z,10.10
2023-03-15T22:19:03.151Z,11.00
2023-03-15T22:21:31.240Z,12.38
2023-03-15T22:23:59.419Z,16.73
2023-03-15T22:26:27.647Z,13.10
2023-03-15T22:28:55.827Z,14.38
2023-03-15T22:31:25.196Z,14.32
2023-03-15T22:33:53.300Z,13.43
2023-03-15T22:36:21.352Z,11.45
2023-03-15T22:38:50.077Z,14.27
2023-03-15T22:41:19.900Z,12.23
2023-03-15T22:43:48.081Z,10.70
2023-03-15T22:46:16.207Z,11.50
2023-03-15T22:48:45.610Z,11.73
2023-03-15T22:51:16.264Z,12.23
2023-03-15T22:53:44.628Z,16.17
2023-03-15T22:56:12.658Z,15.80
2023-03-15T22:58:40.778Z,11.40
2023-03-15T23:01:09.740Z,16.63
2023-03-15T23:03:37.997Z,13.32
2023-03-15T23:06:07.753Z,12.55
2023-03-15T23:08:35.774Z,15.18
2023-03-15T23:11:03.909Z,15.88
2023-03-15T23:13:32.259Z,16.48
2023-03-15T23:16:00.388Z,14.82
2023-03-15T23:18:28.519Z,13.48
2023-03-15T23:21:05.070Z,15.23
2023-03-15T23:23:34.488Z,12.43
2023-03-15T23:26:03.865Z,11.98
2023-03-15T23:28:32.653Z,14.23
2023-03-15T23:31:01.547Z,11.60
2023-03-15T23:33:30.133Z,14.07
2023-03-15T23:35:58.178Z,12.48
2023-03-15T23:38:26.287Z,15.60
2023-03-15T23:40:56.472Z,16.05
2023-03-15T23:43:24.718Z,16.13
2023-03-15T23:46:06.690Z,15.85
2023-03-15T23:48:37.091Z,13.23
2023-03-15T23:51:06.219Z,18.27
2023-03-15T23:53:34.283Z,14.55
2023-03-15T23:56:03.760Z,13.52
2023-03-15T23:58:32.069Z,14.13
